Time;durP1;ratioP1;P1;durP2;ratioP2;P2;SDS_P1;SDS_P2;PMS_P1;PMS_P2;Temp;Humidity;BMP_temperature;BMP_pressure;BME280_temperature;BME280_humidity;BME280_pressure;Samples;Min_cycle;Max_cycle;Signal;HPM_P1;HPM_P2
2022/08/18 00:02:08;;;;;;;;;;;18.20;99.90;;;;;;5057958;28;19958;-85
2022/08/18 00:04:37;;;;;;;;;;;18.20;99.90;;;;;;5058753;28;19959;-85
2022/08/18 00:07:07;;;;;;;;;;;18.10;99.90;;;;;;5059770;28;19923;-85
2022/08/18 00:09:34;;;;;;;;;;;18.00;99.90;;;;;;5061310;28;19929;-86
2022/08/18 00:12:01;;;;;;;;;;;17.90;99.90;;;;;;5058734;28;19921;-86
2022/08/18 00:14:27;;;;;;;;;;;17.90;99.90;;;;;;5058502;28;20706;-86
2022/08/18 00:16:53;;;;;;;;;;;17.90;99.90;;;;;;5061360;28;19916;-87
2022/08/18 00:19:19;;;;;;;;;;;17.80;99.90;;;;;;5049306;28;19924;-87
2022/08/18 00:21:44;;;;;;;;;;;17.90;99.90;;;;;;5060671;28;19923;-87
2022/08/18 00:24:10;;;;;;;;;;;17.80;99.90;;;;;;5087578;28;19954;-87
2022/08/18 00:26:35;;;;;;;;;;;18.00;99.90;;;;;;5054709;28;19917;-86
2022/08/18 00:29:01;;;;;;;;;;;17.80;99.90;;;;;;5059776;28;19925;-84
2022/08/18 00:31:28;;;;;;;;;;;17.70;99.90;;;;;;5059396;28;19981;-85
2022/08/18 00:33:54;;;;;;;;;;;17.80;99.90;;;;;;5054892;28;20023;-83
2022/08/18 00:36:19;;;;;;;;;;;17.70;99.90;;;;;;5062427;28;20007;-86
2022/08/18 00:38:45;;;;;;;;;;;17.60;99.90;;;;;;5056801;28;19916;-87
2022/08/18 00:41:11;;;;;;;;;;;17.60;99.90;;;;;;5062183;28;20735;-87
2022/08/18 00:43:38;;;;;;;;;;;17.60;99.90;;;;;;5058167;28;20018;-85
2022/08/18 00:46:15;;;;;;;;;;;17.50;99.90;;;;;;5062075;28;20031;-86
2022/08/18 00:48:41;;;;;;;;;;;17.50;99.90;;;;;;5060555;28;19924;-86
2022/08/18 00:51:10;;;;;;;;;;;17.50;99.90;;;;;;5052147;28;19917;-85
2022/08/18 00:53:48;;;;;;;;;;;17.60;99.90;;;;;;5062512;28;19913;-86
2022/08/18 00:56:25;;;;;;;;;;;17.60;99.90;;;;;;5059374;28;19989;-86
2022/08/18 00:58:54;;;;;;;;;;;17.50;99.90;;;;;;5063421;28;20007;-89
2022/08/18 01:01:22;;;;;;;;;;;17.40;99.90;;;;;;5062430;28;19921;-84
2022/08/18 01:03:52;;;;;;;;;;;17.30;99.90;;;;;;5061695;28;19920;-83
2022/08/18 01:06:31;;;;;;;;;;;17.10;99.90;;;;;;5062919;28;19921;-83
2022/08/18 01:08:56;;;;;;;;;;;17.00;99.90;;;;;;5064868;28;19924;-84
2022/08/18 01:11:22;;;;;;;;;;;17.10;99.90;;;;;;5062404;28;20384;-84
2022/08/18 01:13:48;;;;;;;;;;;17.10;99.90;;;;;;5059836;28;19951;-84
2022/08/18 01:21:50;;;;;;;;;;;17.20;99.90;;;;;;5061743;28;19923;-84
2022/08/18 01:25:58;;;;;;;;;;;17.30;99.90;;;;;;5061900;28;20560;-83
2022/08/18 01:27:10;;;;;;;;;;;17.20;99.90;;;;;;5060499;28;19916;-83
2022/08/18 01:29:36;;;;;;;;;;;17.10;99.90;;;;;;5056251;28;20381;-84
2022/08/18 01:32:01;;;;;;;;;;;17.10;99.90;;;;;;5061316;28;19917;-83
2022/08/18 01:34:27;;;;;;;;;;;17.20;99.90;;;;;;5061018;28;19931;-83
2022/08/18 01:36:53;;;;;;;;;;;17.20;99.90;;;;;;5061082;28;19916;-84
2022/08/18 01:39:19;;;;;;;;;;;17.10;99.90;;;;;;5062296;28;20027;-84
2022/08/18 01:41:45;;;;;;;;;;;17.00;99.90;;;;;;5058789;28;20015;-84
2022/08/18 01:44:10;;;;;;;;;;;16.80;99.90;;;;;;5054249;28;19980;-86
2022/08/18 01:46:37;;;;;;;;;;;16.80;99.90;;;;;;5060888;28;20361;-85
2022/08/18 01:49:03;;;;;;;;;;;16.70;99.90;;;;;;5060113;28;19931;-84
2022/08/18 01:51:31;;;;;;;;;;;16.80;99.90;;;;;;5057737;28;19916;-83
2022/08/18 01:53:57;;;;;;;;;;;16.90;99.90;;;;;;5054850;28;20421;-83
2022/08/18 01:56:25;;;;;;;;;;;16.80;99.90;;;;;;5060861;28;19970;-85
2022/08/18 01:58:51;;;;;;;;;;;16.90;99.90;;;;;;5061371;28;19920;-84
2022/08/18 02:01:16;;;;;;;;;;;16.80;99.90;;;;;;5061524;28;20399;-85
2022/08/18 02:03:45;;;;;;;;;;;16.80;99.90;;;;;;5092774;28;19921;-85
2022/08/18 02:06:13;;;;;;;;;;;16.80;99.90;;;;;;5061824;28;19924;-84
2022/08/18 02:08:39;;;;;;;;;;;16.80;99.90;;;;;;5060337;28;19924;-84
2022/08/18 02:11:05;;;;;;;;;;;16.70;99.90;;;;;;5060464;28;20453;-84
2022/08/18 02:13:31;;;;;;;;;;;16.70;99.90;;;;;;5060994;28;19993;-84
2022/08/18 02:15:56;;;;;;;;;;;16.70;99.90;;;;;;5059521;28;19996;-85
2022/08/18 02:18:27;;;;;;;;;;;16.70;99.90;;;;;;5061187;28;20032;-85
2022/08/18 02:20:54;;;;;;;;;;;16.80;99.90;;;;;;5057557;28;20093;-85
2022/08/18 02:23:19;;;;;;;;;;;16.70;99.90;;;;;;5055123;28;19916;-86
2022/08/18 02:25:45;;;;;;;;;;;16.70;99.90;;;;;;5060026;28;19923;-84
2022/08/18 02:28:10;;;;;;;;;;;16.60;99.90;;;;;;5091352;28;19920;-87
2022/08/18 02:30:36;;;;;;;;;;;16.60;99.90;;;;;;5060132;28;19973;-85
2022/08/18 02:33:03;;;;;;;;;;;16.50;99.90;;;;;;5061134;28;20379;-86
2022/08/18 02:35:29;;;;;;;;;;;16.50;99.90;;;;;;5060813;28;19952;-85
2022/08/18 02:37:57;;;;;;;;;;;16.60;99.90;;;;;;5060333;28;20335;-83
2022/08/18 02:40:22;;;;;;;;;;;16.70;99.90;;;;;;5086008;28;20689;-83
2022/08/18 02:42:48;;;;;;;;;;;16.70;99.90;;;;;;5057396;28;19917;-82
2022/08/18 02:45:14;;;;;;;;;;;16.60;99.90;;;;;;5061316;28;19916;-82
2022/08/18 02:47:40;;;;;;;;;;;16.50;99.90;;;;;;5058982;28;19927;-81
2022/08/18 02:50:06;;;;;;;;;;;16.50;99.90;;;;;;5059926;28;20011;-81
2022/08/18 02:52:31;;;;;;;;;;;16.50;99.90;;;;;;5060250;28;19916;-81
2022/08/18 02:55:02;;;;;;;;;;;16.50;99.90;;;;;;5061404;28;20341;-81
2022/08/18 02:57:29;;;;;;;;;;;16.50;99.90;;;;;;5059031;28;19920;-81
2022/08/18 02:59:55;;;;;;;;;;;16.50;99.90;;;;;;5060173;28;19993;-81
2022/08/18 03:02:21;;;;;;;;;;;16.50;99.90;;;;;;5055630;28;20783;-81
2022/08/18 03:04:47;;;;;;;;;;;16.40;99.90;;;;;;5058933;28;20402;-80
2022/08/18 03:07:13;;;;;;;;;;;16.40;99.90;;;;;;5060316;28;19921;-80
2022/08/18 03:09:39;;;;;;;;;;;16.40;99.90;;;;;;5061873;28;19932;-81
2022/08/18 03:12:06;;;;;;;;;;;16.50;99.90;;;;;;5063411;28;19960;-81
2022/08/18 03:14:32;;;;;;;;;;;16.50;99.90;;;;;;5063473;28;19916;-81
2022/08/18 03:16:58;;;;;;;;;;;16.60;99.90;;;;;;5063666;28;19920;-81
2022/08/18 03:19:25;;;;;;;;;;;16.70;99.90;;;;;;5065076;28;19923;-81
2022/08/18 03:21:51;;;;;;;;;;;16.70;99.90;;;;;;5063166;28;19913;-81
2022/08/18 03:24:17;;;;;;;;;;;16.90;99.90;;;;;;5063445;28;19917;-79
2022/08/18 03:26:44;;;;;;;;;;;16.80;99.90;;;;;;5063137;28;19920;-78
2022/08/18 03:29:10;;;;;;;;;;;16.80;99.90;;;;;;5063025;28;19925;-78
2022/08/18 03:31:37;;;;;;;;;;;17.00;99.90;;;;;;5063244;28;19960;-79
2022/08/18 03:34:03;;;;;;;;;;;16.80;99.90;;;;;;5060260;28;19958;-78
2022/08/18 03:36:30;;;;;;;;;;;16.60;99.90;;;;;;5063541;28;19920;-81
2022/08/18 03:38:56;;;;;;;;;;;16.60;99.90;;;;;;5062874;28;19924;-81
2022/08/18 03:41:24;;;;;;;;;;;16.70;99.90;;;;;;5061212;28;19916;-81
2022/08/18 03:43:50;;;;;;;;;;;16.70;99.90;;;;;;5063638;28;19920;-81
2022/08/18 03:46:17;;;;;;;;;;;16.90;99.90;;;;;;5074380;28;20446;-80
2022/08/18 03:48:45;;;;;;;;;;;16.90;99.90;;;;;;5062343;28;20415;-81
2022/08/18 03:51:19;;;;;;;;;;;16.80;99.90;;;;;;5062125;28;19916;-80
2022/08/18 03:53:47;;;;;;;;;;;16.70;99.90;;;;;;5062640;28;21599;-80
2022/08/18 03:56:16;;;;;;;;;;;16.80;99.90;;;;;;5064228;28;19917;-79
2022/08/18 03:58:44;;;;;;;;;;;16.70;99.90;;;;;;5061504;28;19920;-79
2022/08/18 04:01:16;;;;;;;;;;;16.80;99.90;;;;;;5059909;28;19938;-79
2022/08/18 04:03:42;;;;;;;;;;;16.80;99.90;;;;;;5063289;28;19939;-79
2022/08/18 04:06:13;;;;;;;;;;;16.80;99.90;;;;;;5062705;28;19969;-79
2022/08/18 04:08:38;;;;;;;;;;;16.90;99.90;;;;;;5062156;28;20072;-79
2022/08/18 04:11:04;;;;;;;;;;;16.90;99.90;;;;;;5064360;28;20484;-78
2022/08/18 04:13:35;;;;;;;;;;;16.80;99.90;;;;;;5063244;28;19917;-79
2022/08/18 04:16:00;;;;;;;;;;;16.90;99.90;;;;;;5058410;28;19936;-79
2022/08/18 04:18:27;;;;;;;;;;;16.80;99.90;;;;;;5064036;28;19924;-79
2022/08/18 04:20:52;;;;;;;;;;;16.90;99.90;;;;;;5062209;28;19920;-79
2022/08/18 04:23:18;;;;;;;;;;;16.90;99.90;;;;;;5059775;28;19924;-79
2022/08/18 04:25:44;;;;;;;;;;;17.00;99.90;;;;;;5064432;28;19916;-79
2022/08/18 04:28:09;;;;;;;;;;;16.80;99.90;;;;;;5062369;28;19925;-81
2022/08/18 04:30:35;;;;;;;;;;;16.70;99.90;;;;;;5063043;28;20319;-80
2022/08/18 04:33:01;;;;;;;;;;;16.80;99.90;;;;;;5061989;28;19960;-80
2022/08/18 04:35:27;;;;;;;;;;;16.80;99.90;;;;;;5062972;28;19951;-81
2022/08/18 04:37:53;;;;;;;;;;;16.90;99.90;;;;;;5062616;28;19919;-80
2022/08/18 04:40:19;;;;;;;;;;;16.90;99.90;;;;;;5062169;28;19916;-80
2022/08/18 04:42:44;;;;;;;;;;;16.90;99.90;;;;;;5092782;28;20284;-80
2022/08/18 04:45:10;;;;;;;;;;;17.00;99.90;;;;;;5063502;28;20559;-80
2022/08/18 04:47:40;;;;;;;;;;;17.00;99.90;;;;;;5062405;28;19919;-81
2022/08/18 04:50:06;;;;;;;;;;;17.10;99.90;;;;;;5060832;28;19924;-81
2022/08/18 04:55:16;;;;;;;;;;;16.90;99.90;;;;;;5060020;28;19927;-80
2022/08/18 04:57:41;;;;;;;;;;;16.90;99.90;;;;;;5061831;28;19917;-80
2022/08/18 05:00:12;;;;;;;;;;;16.90;99.90;;;;;;5062328;28;19921;-83
2022/08/18 05:02:38;;;;;;;;;;;16.90;99.90;;;;;;5059296;28;19920;-81
2022/08/18 05:05:04;;;;;;;;;;;17.00;99.90;;;;;;5061221;28;19927;-82
2022/08/18 05:07:29;;;;;;;;;;;17.10;99.90;;;;;;5063167;28;19921;-81
2022/08/18 05:09:55;;;;;;;;;;;17.00;99.90;;;;;;5061984;28;20303;-81
2022/08/18 05:12:21;;;;;;;;;;;17.00;99.90;;;;;;5074656;28;20011;-81
2022/08/18 05:14:46;;;;;;;;;;;17.00;99.90;;;;;;5063309;28;19939;-80
2022/08/18 05:17:15;;;;;;;;;;;16.90;99.90;;;;;;5060452;28;19921;-80
2022/08/18 05:19:42;;;;;;;;;;;17.00;99.90;;;;;;5058514;28;19999;-80
2022/08/18 05:22:09;;;;;;;;;;;17.00;99.90;;;;;;5062811;28;20011;-80
2022/08/18 05:24:35;;;;;;;;;;;16.90;99.90;;;;;;5063132;28;19924;-79
2022/08/18 05:27:00;;;;;;;;;;;16.90;99.90;;;;;;5059719;28;19916;-80
2022/08/18 05:29:26;;;;;;;;;;;16.90;99.90;;;;;;5059722;28;19978;-80
2022/08/18 05:31:52;;;;;;;;;;;16.80;99.90;;;;;;5088752;28;20855;-80
2022/08/18 05:34:20;;;;;;;;;;;16.70;99.90;;;;;;5070201;28;19939;-81
2022/08/18 05:36:49;;;;;;;;;;;16.70;99.90;;;;;;5062036;28;19938;-80
2022/08/18 05:39:21;;;;;;;;;;;16.80;99.90;;;;;;5058025;28;19916;-80
2022/08/18 05:41:50;;;;;;;;;;;16.90;99.90;;;;;;5060237;28;19926;-81
2022/08/18 05:44:18;;;;;;;;;;;17.00;99.90;;;;;;5059128;28;19922;-81
2022/08/18 05:46:49;;;;;;;;;;;17.10;99.90;;;;;;5060911;28;20686;-80
2022/08/18 05:49:15;;;;;;;;;;;17.10;99.90;;;;;;5062535;28;20076;-81
2022/08/18 05:51:48;;;;;;;;;;;17.30;99.90;;;;;;5061289;28;20387;-80
2022/08/18 05:57:06;;;;;;;;;;;17.40;99.90;;;;;;5054883;28;20393;-86
2022/08/18 05:59:34;;;;;;;;;;;17.80;99.90;;;;;;5062514;28;19927;-85
2022/08/18 06:02:30;;;;;;;;;;;18.00;99.90;;;;;;5061451;28;19916;-86
2022/08/18 06:04:57;;;;;;;;;;;18.10;99.90;;;;;;5052797;28;20273;-86
2022/08/18 06:07:46;;;;;;;;;;;18.10;99.90;;;;;;5061628;28;19951;-86
2022/08/18 06:10:11;;;;;;;;;;;18.00;99.90;;;;;;5039040;28;19924;-87
2022/08/18 06:12:40;;;;;;;;;;;18.00;99.90;;;;;;5040550;28;20355;-88
2022/08/18 06:15:11;;;;;;;;;;;18.00;99.90;;;;;;5037933;28;19923;-88
2022/08/18 06:17:37;;;;;;;;;;;18.10;99.90;;;;;;5037986;28;19917;-94
2022/08/18 06:20:16;;;;;;;;;;;18.00;99.90;;;;;;5035741;28;20445;-90
2022/08/18 06:23:04;;;;;;;;;;;18.20;99.90;;;;;;5034258;28;20297;-88
2022/08/18 06:25:47;;;;;;;;;;;18.10;99.90;;;;;;4998500;28;19918;-89
2022/08/18 06:28:14;;;;;;;;;;;18.10;99.90;;;;;;4994763;28;20412;-88
2022/08/18 06:30:49;;;;;;;;;;;18.10;99.90;;;;;;5001886;28;19917;-88
2022/08/18 06:33:17;;;;;;;;;;;18.30;99.90;;;;;;4982091;28;20393;-85
2022/08/18 06:35:59;;;;;;;;;;;18.60;99.90;;;;;;4990236;28;19951;-89
2022/08/18 06:38:39;;;;;;;;;;;18.60;99.90;;;;;;4999610;28;19920;-90
2022/08/18 06:41:11;;;;;;;;;;;18.50;99.90;;;;;;4994318;28;20003;-88
2022/08/18 06:43:38;;;;;;;;;;;18.60;99.90;;;;;;4998115;28;19936;-85
2022/08/18 06:46:08;;;;;;;;;;;18.70;99.90;;;;;;4986782;28;20020;-84
2022/08/18 06:48:42;;;;;;;;;;;18.60;99.90;;;;;;4983126;28;19984;-94
2022/08/18 06:51:18;;;;;;;;;;;18.40;99.90;;;;;;4974950;28;20356;-85
2022/08/18 06:53:51;;;;;;;;;;;18.50;99.90;;;;;;4980527;28;20814;-84
2022/08/18 06:56:22;;;;;;;;;;;18.50;99.90;;;;;;4979981;28;19925;-84
2022/08/18 06:58:47;;;;;;;;;;;18.50;99.90;;;;;;4981056;28;19917;-86
2022/08/18 07:01:13;;;;;;;;;;;18.70;99.90;;;;;;4983184;28;20308;-88
2022/08/18 07:03:43;;;;;;;;;;;18.60;99.90;;;;;;5045684;28;20546;-85
2022/08/18 07:06:10;;;;;;;;;;;18.50;99.90;;;;;;5063020;28;19920;-91
2022/08/18 07:08:40;;;;;;;;;;;18.40;99.90;;;;;;5063215;28;20074;-88
2022/08/18 07:11:28;;;;;;;;;;;18.30;99.90;;;;;;5055237;28;19962;-86
2022/08/18 07:13:55;;;;;;;;;;;18.30;99.90;;;;;;5044205;28;19927;-85
2022/08/18 07:16:27;;;;;;;;;;;18.00;99.90;;;;;;5082358;28;19916;-84
2022/08/18 07:18:52;;;;;;;;;;;18.00;99.90;;;;;;5049550;28;19942;-84
2022/08/18 07:21:27;;;;;;;;;;;18.30;99.90;;;;;;5054654;28;19921;-82
2022/08/18 07:24:25;;;;;;;;;;;18.50;99.90;;;;;;5045102;28;19961;-85
2022/08/18 07:27:02;;;;;;;;;;;18.60;99.90;;;;;;5031159;28;19932;-86
2022/08/18 07:29:28;;;;;;;;;;;18.70;99.90;;;;;;5019963;28;19929;-87
2022/08/18 07:31:55;;;;;;;;;;;18.90;99.90;;;;;;5038220;28;19967;-86
2022/08/18 07:34:26;;;;;;;;;;;19.10;99.90;;;;;;5024987;28;19992;-83
2022/08/18 07:36:53;;;;;;;;;;;19.30;99.90;;;;;;5029402;28;20373;-87
2022/08/18 07:39:28;;;;;;;;;;;19.70;99.90;;;;;;5032115;28;19913;-90
2022/08/18 07:41:56;;;;;;;;;;;20.10;99.90;;;;;;5021063;28;19952;-89
2022/08/18 07:44:36;;;;;;;;;;;20.40;99.90;;;;;;5023711;28;19916;-83
2022/08/18 07:47:05;;;;;;;;;;;20.50;99.90;;;;;;5044151;28;19917;-86
2022/08/18 07:49:33;;;;;;;;;;;20.50;99.90;;;;;;5006483;28;19999;-89
2022/08/18 07:51:58;;;;;;;;;;;20.80;99.90;;;;;;5038004;28;19928;-81
2022/08/18 07:54:27;;;;;;;;;;;21.00;99.90;;;;;;5032766;28;19916;-81
2022/08/18 07:56:58;;;;;;;;;;;21.20;99.90;;;;;;5038863;28;20391;-81
2022/08/18 07:59:28;;;;;;;;;;;21.40;99.90;;;;;;5025865;28;19913;-81
2022/08/18 08:02:15;;;;;;;;;;;22.20;99.90;;;;;;5042269;28;19916;-81
2022/08/18 08:04:52;;;;;;;;;;;22.30;99.90;;;;;;5057646;28;19916;-80
2022/08/18 08:07:27;;;;;;;;;;;22.00;99.90;;;;;;5061460;28;19917;-81
2022/08/18 08:10:08;;;;;;;;;;;21.40;99.90;;;;;;5058343;28;19940;-81
2022/08/18 08:12:45;;;;;;;;;;;20.80;99.90;;;;;;5062809;28;19922;-80
2022/08/18 08:15:25;;;;;;;;;;;20.60;99.90;;;;;;5060053;28;19916;-80
2022/08/18 08:18:14;;;;;;;;;;;20.70;99.90;;;;;;5061142;28;20072;-81
2022/08/18 08:20:57;;;;;;;;;;;21.20;99.90;;;;;;5039355;28;19920;-81
2022/08/18 08:23:40;;;;;;;;;;;21.90;99.90;;;;;;5025138;28;19928;-81
2022/08/18 08:26:14;;;;;;;;;;;22.90;99.90;;;;;;5041297;28;20402;-81
2022/08/18 08:28:46;;;;;;;;;;;23.30;99.90;;;;;;5040109;28;20007;-81
2022/08/18 08:31:17;;;;;;;;;;;27.40;99.90;;;;;;5041025;28;19995;-81
2022/08/18 08:34:08;;;;;;;;;;;29.80;98.90;;;;;;5041463;28;19969;-81
2022/08/18 08:36:36;;;;;;;;;;;30.70;95.90;;;;;;4943407;28;19918;-81
2022/08/18 08:39:04;;;;;;;;;;;31.40;92.50;;;;;;4944237;28;20358;-81
2022/08/18 08:41:49;;;;;;;;;;;31.50;90.70;;;;;;4943653;28;20516;-81
2022/08/18 08:44:18;;;;;;;;;;;32.00;89.60;;;;;;4943150;28;19934;-81
2022/08/18 08:46:46;;;;;;;;;;;30.90;84.20;;;;;;4943755;28;20298;-81
2022/08/18 08:49:14;;;;;;;;;;;29.00;87.60;;;;;;4943905;28;20345;-81
2022/08/18 08:52:03;;;;;;;;;;;27.90;94.30;;;;;;4943334;28;20043;-81
2022/08/18 08:54:37;;;;;;;;;;;30.80;89.70;;;;;;4938236;28;20028;-80
2022/08/18 08:57:03;;;;;;;;;;;30.20;87.90;;;;;;4949299;28;20645;-81
2022/08/18 08:59:29;;;;;;;;;;;27.30;91.70;;;;;;4985841;28;20420;-81
2022/08/18 09:01:54;;;;;;;;;;;31.00;87.10;;;;;;4980984;28;19914;-81
2022/08/18 09:04:20;;;;;;;;;;;32.30;80.20;;;;;;4998673;28;19914;-80
2022/08/18 09:07:02;;;;;;;;;;;33.20;77.50;;;;;;4974233;28;19921;-81
2022/08/18 09:09:36;;;;;;;;;;;34.10;72.70;;;;;;4960810;28;19922;-81
2022/08/18 09:12:16;;;;;;;;;;;33.60;75.10;;;;;;4969998;28;20041;-81
2022/08/18 09:15:07;;;;;;;;;;;30.10;75.80;;;;;;5055807;28;20036;-81
2022/08/18 09:17:33;;;;;;;;;;;29.90;80.70;;;;;;5049359;28;19947;-81
2022/08/18 09:20:07;;;;;;;;;;;32.60;75.20;;;;;;5063260;28;19959;-81
2022/08/18 09:22:51;;;;;;;;;;;30.60;73.60;;;;;;5058861;28;20391;-81
2022/08/18 09:25:28;;;;;;;;;;;28.40;80.60;;;;;;5060358;28;19916;-81
2022/08/18 09:28:14;;;;;;;;;;;26.20;88.20;;;;;;5062238;28;19928;-81
2022/08/18 09:30:42;;;;;;;;;;;26.10;91.40;;;;;;5040138;28;19922;-81
2022/08/18 09:33:13;;;;;;;;;;;27.30;90.50;;;;;;5038099;28;19917;-81
2022/08/18 09:35:55;;;;;;;;;;;27.80;86.60;;;;;;5039809;28;20402;-81
2022/08/18 09:41:31;;;;;;;;;;;27.00;90.40;;;;;;5027814;28;19963;-81
2022/08/18 09:44:11;;;;;;;;;;;30.90;83.70;;;;;;5036987;28;20416;-82
2022/08/18 09:46:42;;;;;;;;;;;33.40;74.70;;;;;;5038915;28;19975;-81
2022/08/18 09:49:26;;;;;;;;;;;33.60;71.60;;;;;;5034793;28;19924;-80
2022/08/18 09:51:52;;;;;;;;;;;32.10;71.10;;;;;;5036553;28;19962;-85
2022/08/18 09:54:26;;;;;;;;;;;32.60;71.70;;;;;;5022047;28;20134;-89
2022/08/18 09:57:10;;;;;;;;;;;33.30;66.90;;;;;;5038140;28;19913;-92
2022/08/18 09:59:36;;;;;;;;;;;32.80;63.60;;;;;;5042264;28;20659;-88
2022/08/18 10:02:09;;;;;;;;;;;34.00;63.90;;;;;;5041983;28;19920;-88
2022/08/18 10:04:47;;;;;;;;;;;34.00;64.00;;;;;;5043427;28;19980;-88
2022/08/18 10:07:29;;;;;;;;;;;33.00;66.00;;;;;;5040736;28;19974;-87
2022/08/18 10:10:00;;;;;;;;;;;29.50;71.60;;;;;;5056005;28;19925;-89
2022/08/18 10:12:55;;;;;;;;;;;28.50;77.80;;;;;;5060483;28;19912;-89
2022/08/18 10:15:21;;;;;;;;;;;28.80;79.90;;;;;;5051878;28;19998;-90
2022/08/18 10:17:57;;;;;;;;;;;32.20;69.60;;;;;;5059203;28;20455;-90
2022/08/18 10:20:49;;;;;;;;;;;30.40;65.20;;;;;;5064015;28;19923;-90
2022/08/18 10:29:27;;;;;;;;;;;26.90;80.10;;;;;;5026233;28;19990;-85
2022/08/18 10:31:58;;;;;;;;;;;28.30;80.30;;;;;;5038801;28;19917;-87
2022/08/18 10:34:26;;;;;;;;;;;28.10;78.90;;;;;;5019552;28;20011;-85
2022/08/18 10:36:57;;;;;;;;;;;27.60;76.30;;;;;;5016087;28;19990;-84
2022/08/18 10:39:37;;;;;;;;;;;27.40;76.50;;;;;;5026545;28;19917;-84
2022/08/18 10:42:23;;;;;;;;;;;27.50;77.70;;;;;;5026849;28;19913;-86
2022/08/18 10:44:50;;;;;;;;;;;28.10;77.70;;;;;;5025710;28;20418;-84
2022/08/18 10:47:21;;;;;;;;;;;27.80;76.90;;;;;;5025642;28;19961;-86
2022/08/18 10:49:50;;;;;;;;;;;27.70;76.60;;;;;;5016218;28;20052;-85
2022/08/18 10:52:29;;;;;;;;;;;27.70;76.30;;;;;;5023635;28;20025;-83
2022/08/18 10:54:57;;;;;;;;;;;28.20;76.80;;;;;;5032485;28;20122;-82
2022/08/18 10:57:38;;;;;;;;;;;27.90;74.90;;;;;;5027664;28;19951;-82
2022/08/18 11:00:10;;;;;;;;;;;27.90;74.10;;;;;;5035560;28;20444;-82
2022/08/18 11:02:48;;;;;;;;;;;27.70;74.40;;;;;;5044444;28;19917;-82
2022/08/18 11:05:16;;;;;;;;;;;28.10;72.70;;;;;;5042917;28;19952;-81
2022/08/18 11:07:45;;;;;;;;;;;28.20;71.40;;;;;;5043488;28;20408;-81
2022/08/18 11:10:22;;;;;;;;;;;28.60;71.20;;;;;;5052954;28;20311;-81
2022/08/18 11:12:51;;;;;;;;;;;28.80;71.40;;;;;;5043001;28;20039;-82
2022/08/18 11:15:22;;;;;;;;;;;28.10;71.30;;;;;;5043164;28;19921;-82
2022/08/18 11:17:54;;;;;;;;;;;27.30;71.00;;;;;;5046801;28;20059;-82
2022/08/18 11:20:21;;;;;;;;;;;27.60;70.90;;;;;;5050989;28;20173;-81
2022/08/18 11:22:52;;;;;;;;;;;27.70;71.70;;;;;;5049094;28;19971;-82
2022/08/18 11:25:32;;;;;;;;;;;27.30;73.40;;;;;;5053805;28;20353;-81
2022/08/18 11:27:58;;;;;;;;;;;27.80;73.90;;;;;;5050908;28;19986;-81
2022/08/18 11:30:40;;;;;;;;;;;28.40;74.10;;;;;;5053858;28;19928;-83
2022/08/18 11:33:06;;;;;;;;;;;28.40;73.30;;;;;;5060806;28;19912;-83
2022/08/18 11:35:46;;;;;;;;;;;27.60;73.20;;;;;;5058689;28;19923;-80
2022/08/18 11:38:13;;;;;;;;;;;27.60;74.20;;;;;;5051519;28;20072;-82
2022/08/18 11:40:40;;;;;;;;;;;27.40;75.20;;;;;;5049130;28;19925;-82
2022/08/18 11:43:16;;;;;;;;;;;27.70;75.70;;;;;;5051728;28;20342;-85
2022/08/18 11:45:51;;;;;;;;;;;27.70;76.00;;;;;;5062437;28;19916;-84
2022/08/18 11:48:35;;;;;;;;;;;27.50;79.40;;;;;;5049390;28;19994;-84
2022/08/18 11:51:02;;;;;;;;;;;27.10;76.70;;;;;;5029150;28;20035;-81
2022/08/18 11:53:31;;;;;;;;;;;26.70;76.90;;;;;;5032978;28;19917;-81
2022/08/18 11:56:14;;;;;;;;;;;26.60;76.40;;;;;;5027015;28;19917;-82
2022/08/18 11:58:39;;;;;;;;;;;26.50;76.10;;;;;;5034839;28;19995;-81
2022/08/18 12:01:07;;;;;;;;;;;26.60;75.80;;;;;;5042435;28;19917;-81
2022/08/18 12:03:39;;;;;;;;;;;26.80;79.00;;;;;;5031442;28;20120;-81
2022/08/18 12:06:15;;;;;;;;;;;26.90;77.70;;;;;;5031807;28;19924;-81
2022/08/18 12:09:07;;;;;;;;;;;27.10;77.80;;;;;;5031546;28;20377;-81
2022/08/18 12:11:39;;;;;;;;;;;27.50;76.10;;;;;;5024999;28;20447;-79
2022/08/18 12:14:07;;;;;;;;;;;27.60;75.20;;;;;;5037522;28;19923;-80
2022/08/18 12:16:34;;;;;;;;;;;27.70;73.70;;;;;;5031579;28;19917;-80
2022/08/18 12:19:00;;;;;;;;;;;27.80;74.60;;;;;;5031523;28;19917;-80
2022/08/18 12:21:26;;;;;;;;;;;27.80;74.60;;;;;;5033248;28;19924;-80
2022/08/18 12:23:51;;;;;;;;;;;28.00;76.00;;;;;;5036129;28;19917;-80
2022/08/18 12:26:17;;;;;;;;;;;28.10;76.00;;;;;;5030105;28;19920;-80
2022/08/18 12:28:43;;;;;;;;;;;27.90;72.50;;;;;;5018588;28;19921;-80
2022/08/18 12:31:09;;;;;;;;;;;27.80;72.80;;;;;;5040996;28;21374;-80
2022/08/18 12:33:34;;;;;;;;;;;27.60;74.90;;;;;;5038605;28;19931;-81
2022/08/18 12:36:01;;;;;;;;;;;27.90;74.00;;;;;;5039353;28;19917;-81
2022/08/18 12:38:27;;;;;;;;;;;28.00;73.40;;;;;;5033500;28;19998;-80
2022/08/18 12:40:52;;;;;;;;;;;27.20;74.10;;;;;;5011769;28;20299;-81
2022/08/18 12:43:18;;;;;;;;;;;26.50;76.10;;;;;;5035602;28;19921;-81
2022/08/18 12:45:43;;;;;;;;;;;26.70;77.60;;;;;;5027077;28;19967;-80
2022/08/18 12:48:09;;;;;;;;;;;26.80;77.70;;;;;;5038133;28;19982;-81
2022/08/18 12:50:35;;;;;;;;;;;26.70;77.40;;;;;;5060511;28;19959;-81
2022/08/18 12:53:01;;;;;;;;;;;26.40;75.60;;;;;;5054711;28;20015;-81
2022/08/18 12:55:28;;;;;;;;;;;26.10;75.90;;;;;;5056312;28;20009;-80
2022/08/18 12:57:54;;;;;;;;;;;26.00;77.70;;;;;;5055180;28;19990;-80
2022/08/18 13:00:20;;;;;;;;;;;26.00;77.80;;;;;;5053774;28;20583;-82
2022/08/18 13:02:45;;;;;;;;;;;25.80;76.70;;;;;;5055860;28;19999;-80
2022/08/18 13:05:11;;;;;;;;;;;26.10;76.80;;;;;;5087530;28;19921;-81
2022/08/18 13:07:36;;;;;;;;;;;26.90;74.30;;;;;;5056603;28;20390;-80
2022/08/18 13:10:03;;;;;;;;;;;27.30;73.50;;;;;;5053771;28;20721;-80
2022/08/18 13:12:28;;;;;;;;;;;26.80;72.20;;;;;;5070571;28;20007;-81
2022/08/18 13:14:54;;;;;;;;;;;26.90;73.60;;;;;;5057890;28;20113;-81
2022/08/18 13:17:20;;;;;;;;;;;26.80;74.60;;;;;;5052144;28;19939;-82
2022/08/18 13:19:46;;;;;;;;;;;26.80;73.80;;;;;;5061382;28;19931;-82
2022/08/18 13:22:12;;;;;;;;;;;26.50;74.50;;;;;;5053057;28;19920;-81
2022/08/18 13:24:37;;;;;;;;;;;26.80;74.90;;;;;;5062765;28;20398;-81
2022/08/18 13:27:03;;;;;;;;;;;27.20;77.70;;;;;;5059277;28;20585;-82
2022/08/18 13:29:29;;;;;;;;;;;27.70;75.90;;;;;;5058923;28;19928;-81
2022/08/18 13:31:57;;;;;;;;;;;27.70;73.00;;;;;;5057403;28;19917;-82
2022/08/18 13:34:23;;;;;;;;;;;27.50;74.20;;;;;;5060278;28;19916;-80
2022/08/18 13:36:48;;;;;;;;;;;27.50;74.10;;;;;;5059273;28;20643;-81
2022/08/18 13:39:18;;;;;;;;;;;27.10;72.70;;;;;;5061823;28;19923;-80
2022/08/18 13:41:45;;;;;;;;;;;26.70;73.20;;;;;;5061587;28;19958;-80
2022/08/18 13:44:12;;;;;;;;;;;26.70;74.60;;;;;;5067041;28;19920;-81
2022/08/18 13:46:44;;;;;;;;;;;26.60;73.50;;;;;;5055813;28;19916;-81
2022/08/18 13:49:10;;;;;;;;;;;26.50;74.20;;;;;;5060423;28;19931;-80
2022/08/18 13:51:36;;;;;;;;;;;26.00;76.90;;;;;;5063192;28;19912;-80
2022/08/18 13:54:01;;;;;;;;;;;26.00;77.20;;;;;;5052117;28;19913;-93
2022/08/18 13:56:27;;;;;;;;;;;25.70;74.70;;;;;;5058745;28;19970;-92
2022/08/18 13:58:52;;;;;;;;;;;25.30;77.20;;;;;;5065405;28;20405;-93
2022/08/18 14:01:18;;;;;;;;;;;25.20;77.60;;;;;;5057867;28;19990;-92
2022/08/18 14:03:44;;;;;;;;;;;25.20;77.20;;;;;;5062237;28;20008;-94
2022/08/18 14:06:10;;;;;;;;;;;25.00;77.60;;;;;;5066210;28;19924;-93
2022/08/18 14:08:35;;;;;;;;;;;24.90;77.90;;;;;;5065952;28;19933;-92
2022/08/18 14:11:02;;;;;;;;;;;24.60;78.70;;;;;;5065643;28;19917;-91
2022/08/18 14:13:28;;;;;;;;;;;24.70;79.00;;;;;;5060874;28;20003;-94
2022/08/18 14:15:54;;;;;;;;;;;24.60;80.20;;;;;;5067437;28;20376;-93
2022/08/18 14:18:20;;;;;;;;;;;24.60;79.50;;;;;;5072522;28;20001;-92
2022/08/18 14:28:58;;;;;;;;;;;24.40;79.80;;;;;;5070558;28;20307;-89
2022/08/18 14:31:24;;;;;;;;;;;24.40;80.70;;;;;;5058125;28;19916;-89
2022/08/18 14:33:49;;;;;;;;;;;24.40;81.60;;;;;;5058952;28;19917;-93
2022/08/18 14:36:15;;;;;;;;;;;24.40;81.00;;;;;;5061194;28;19912;-85
2022/08/18 14:38:41;;;;;;;;;;;24.50;80.30;;;;;;5058153;28;19920;-87
2022/08/18 14:41:08;;;;;;;;;;;24.40;79.10;;;;;;5052732;28;20444;-88
2022/08/18 14:43:37;;;;;;;;;;;24.40;78.40;;;;;;5045393;28;19921;-93
2022/08/18 14:46:03;;;;;;;;;;;24.50;77.40;;;;;;5062066;28;20475;-94
2022/08/18 14:48:29;;;;;;;;;;;24.60;77.80;;;;;;5054479;28;19925;-93
2022/08/18 14:50:55;;;;;;;;;;;24.60;76.60;;;;;;5045703;28;19923;-94
2022/08/18 14:53:22;;;;;;;;;;;24.80;76.30;;;;;;5030657;28;19917;-92
2022/08/18 14:55:51;;;;;;;;;;;24.70;76.90;;;;;;5035499;28;19923;-90
2022/08/18 14:58:26;;;;;;;;;;;25.10;77.10;;;;;;5035904;28;19916;-87
2022/08/18 15:00:53;;;;;;;;;;;25.20;76.20;;;;;;5047943;28;20277;-92